KSAD/SAD METAR and TAF weather

Enter ICAO airport designator
Station Type Date Time Source
KSAD METAR 2019/08/25 19:51 UTC NOAA

KSAD 251951Z AUTO 29014G21KT 10SM CLR 37/16 A2999 RMK AO2 PK WND 32026/1935 SLP089 T03670156


Station Type Date Time Source
KSAD Decoded METAR 2019/08/25 19:51 UTC NOAA

Station name not available
Aug 25, 2019 - 03:51 PM EDT / 2019.08.25 1951 UTC
Wind: from the WNW (290 degrees) at 16 MPH (14 KT) gusting to 24 MPH (21 KT):0
Visibility: 10 mile(s):0
Sky conditions: clear
Temperature: 98.1 F (36.7 C)
Heat index: 98.2 F (36.8 C):1
Dew Point: 60.1 F (15.6 C)
Relative Humidity: 28%
Pressure (altimeter): 29.99 in. Hg (1015 hPa)
ob: KSAD 251951Z AUTO 29014G21KT 10SM CLR 37/16 A2999 RMK AO2 PK WND 32026/1935 SLP089 T03670156
cycle: 20

Station Type Date Time Source
KSAD TAF UTC NOAA

Error!

Example: see airport list